sensor_id;sensor_type;location;lat;lon;timestamp;P1;durP1;ratioP1;P2;durP2;ratioP2
21293;SDS011;10806;52.250;21.066;2022-07-03T00:01:40;4.85;;;4.45;;
21293;SDS011;10806;52.250;21.066;2022-07-03T00:04:06;6.72;;;5.25;;
21293;SDS011;10806;52.250;21.066;2022-07-03T00:06:32;9.38;;;4.75;;
21293;SDS011;10806;52.250;21.066;2022-07-03T00:08:59;8.27;;;4.40;;
21293;SDS011;10806;52.250;21.066;2022-07-03T00:11:27;6.22;;;4.95;;
21293;SDS011;10806;52.250;21.066;2022-07-03T00:13:52;6.03;;;4.93;;
21293;SDS011;10806;52.250;21.066;2022-07-03T00:16:18;9.13;;;4.78;;
21293;SDS011;10806;52.250;21.066;2022-07-03T00:18:44;5.57;;;4.68;;
21293;SDS011;10806;52.250;21.066;2022-07-03T00:21:11;13.65;;;4.82;;
21293;SDS011;10806;52.250;21.066;2022-07-03T00:23:43;8.90;;;4.75;;
21293;SDS011;10806;52.250;21.066;2022-07-03T00:26:13;7.00;;;4.50;;
21293;SDS011;10806;52.250;21.066;2022-07-03T00:28:39;5.78;;;4.80;;
21293;SDS011;10806;52.250;21.066;2022-07-03T00:31:07;6.45;;;4.25;;
21293;SDS011;10806;52.250;21.066;2022-07-03T00:33:33;6.72;;;4.78;;
21293;SDS011;10806;52.250;21.066;2022-07-03T00:36:01;5.80;;;4.50;;
21293;SDS011;10806;52.250;21.066;2022-07-03T00:38:27;7.47;;;4.40;;
21293;SDS011;10806;52.250;21.066;2022-07-03T00:40:53;9.98;;;4.75;;
21293;SDS011;10806;52.250;21.066;2022-07-03T00:43:19;9.68;;;4.75;;
21293;SDS011;10806;52.250;21.066;2022-07-03T00:45:46;8.82;;;4.80;;
21293;SDS011;10806;52.250;21.066;2022-07-03T00:48:17;8.85;;;4.75;;
21293;SDS011;10806;52.250;21.066;2022-07-03T00:50:46;6.40;;;4.40;;
21293;SDS011;10806;52.250;21.066;2022-07-03T00:53:29;5.57;;;4.40;;
21293;SDS011;10806;52.250;21.066;2022-07-03T00:55:57;6.40;;;4.35;;
21293;SDS011;10806;52.250;21.066;2022-07-03T00:58:25;5.30;;;4.28;;
21293;SDS011;10806;52.250;21.066;2022-07-03T01:00:53;5.35;;;3.97;;
21293;SDS011;10806;52.250;21.066;2022-07-03T01:03:21;7.93;;;4.32;;
21293;SDS011;10806;52.250;21.066;2022-07-03T01:05:51;7.93;;;4.60;;
21293;SDS011;10806;52.250;21.066;2022-07-03T01:08:37;5.03;;;4.13;;
21293;SDS011;10806;52.250;21.066;2022-07-03T01:11:12;10.15;;;4.70;;
21293;SDS011;10806;52.250;21.066;2022-07-03T01:16:57;6.15;;;4.60;;
21293;SDS011;10806;52.250;21.066;2022-07-03T01:19:50;10.45;;;4.53;;
21293;SDS011;10806;52.250;21.066;2022-07-03T01:25:16;5.63;;;4.07;;
21293;SDS011;10806;52.250;21.066;2022-07-03T01:30:31;6.53;;;4.18;;
21293;SDS011;10806;52.250;21.066;2022-07-03T01:32:59;5.38;;;4.32;;
21293;SDS011;10806;52.250;21.066;2022-07-03T01:35:33;6.72;;;4.72;;
21293;SDS011;10806;52.250;21.066;2022-07-03T01:38:06;6.53;;;4.65;;
21293;SDS011;10806;52.250;21.066;2022-07-03T01:40:34;7.90;;;4.45;;
21293;SDS011;10806;52.250;21.066;2022-07-03T01:43:02;7.10;;;4.13;;
21293;SDS011;10806;52.250;21.066;2022-07-03T01:45:30;7.65;;;4.10;;
21293;SDS011;10806;52.250;21.066;2022-07-03T01:47:56;6.68;;;4.57;;
21293;SDS011;10806;52.250;21.066;2022-07-03T01:50:24;7.85;;;4.63;;
21293;SDS011;10806;52.250;21.066;2022-07-03T01:52:52;7.40;;;4.32;;
21293;SDS011;10806;52.250;21.066;2022-07-03T01:55:19;9.25;;;4.03;;
21293;SDS011;10806;52.250;21.066;2022-07-03T01:57:47;8.32;;;4.80;;
21293;SDS011;10806;52.250;21.066;2022-07-03T02:00:18;10.02;;;4.38;;
21293;SDS011;10806;52.250;21.066;2022-07-03T02:02:50;6.15;;;4.65;;
21293;SDS011;10806;52.250;21.066;2022-07-03T02:10:53;10.25;;;4.53;;
21293;SDS011;10806;52.250;21.066;2022-07-03T02:13:44;7.97;;;4.65;;
21293;SDS011;10806;52.250;21.066;2022-07-03T02:17:22;6.10;;;4.22;;
21293;SDS011;10806;52.250;21.066;2022-07-03T02:19:41;6.03;;;4.20;;
21293;SDS011;10806;52.250;21.066;2022-07-03T02:22:11;8.85;;;4.18;;
21293;SDS011;10806;52.250;21.066;2022-07-03T02:24:44;8.27;;;3.92;;
21293;SDS011;10806;52.250;21.066;2022-07-03T02:27:15;7.93;;;4.68;;
21293;SDS011;10806;52.250;21.066;2022-07-03T02:29:46;5.78;;;3.95;;
21293;SDS011;10806;52.250;21.066;2022-07-03T02:32:17;9.18;;;4.00;;
21293;SDS011;10806;52.250;21.066;2022-07-03T02:34:49;4.97;;;3.67;;
21293;SDS011;10806;52.250;21.066;2022-07-03T02:37:23;7.57;;;4.00;;
21293;SDS011;10806;52.250;21.066;2022-07-03T02:39:57;11.45;;;4.03;;
21293;SDS011;10806;52.250;21.066;2022-07-03T02:42:39;7.95;;;3.72;;
21293;SDS011;10806;52.250;21.066;2022-07-03T02:45:25;7.00;;;3.90;;
21293;SDS011;10806;52.250;21.066;2022-07-03T02:48:02;7.70;;;3.92;;
21293;SDS011;10806;52.250;21.066;2022-07-03T02:50:34;5.63;;;3.25;;
21293;SDS011;10806;52.250;21.066;2022-07-03T02:53:20;6.47;;;3.70;;
21293;SDS011;10806;52.250;21.066;2022-07-03T02:55:51;6.40;;;3.50;;
21293;SDS011;10806;52.250;21.066;2022-07-03T03:04:30;6.80;;;3.15;;
21293;SDS011;10806;52.250;21.066;2022-07-03T03:07:16;9.93;;;3.80;;
21293;SDS011;10806;52.250;21.066;2022-07-03T03:09:47;5.75;;;3.28;;
21293;SDS011;10806;52.250;21.066;2022-07-03T03:12:13;9.57;;;3.47;;
21293;SDS011;10806;52.250;21.066;2022-07-03T03:14:40;6.63;;;3.55;;
21293;SDS011;10806;52.250;21.066;2022-07-03T03:17:08;8.52;;;3.88;;
21293;SDS011;10806;52.250;21.066;2022-07-03T03:19:41;7.03;;;3.17;;
21293;SDS011;10806;52.250;21.066;2022-07-03T03:24:53;10.82;;;3.00;;
21293;SDS011;10806;52.250;21.066;2022-07-03T03:27:18;6.20;;;3.10;;
21293;SDS011;10806;52.250;21.066;2022-07-03T03:29:44;7.22;;;3.22;;
21293;SDS011;10806;52.250;21.066;2022-07-03T03:32:10;8.25;;;3.15;;
21293;SDS011;10806;52.250;21.066;2022-07-03T03:34:36;5.28;;;3.53;;
21293;SDS011;10806;52.250;21.066;2022-07-03T03:37:05;6.07;;;2.75;;
21293;SDS011;10806;52.250;21.066;2022-07-03T03:39:31;5.43;;;2.95;;
21293;SDS011;10806;52.250;21.066;2022-07-03T03:41:57;4.78;;;2.90;;
21293;SDS011;10806;52.250;21.066;2022-07-03T03:44:25;4.82;;;2.90;;
21293;SDS011;10806;52.250;21.066;2022-07-03T03:46:50;5.03;;;3.03;;
21293;SDS011;10806;52.250;21.066;2022-07-03T03:49:16;6.53;;;2.92;;
21293;SDS011;10806;52.250;21.066;2022-07-03T03:51:42;5.65;;;3.17;;
21293;SDS011;10806;52.250;21.066;2022-07-03T03:54:07;4.40;;;2.72;;
21293;SDS011;10806;52.250;21.066;2022-07-03T03:56:33;5.38;;;2.65;;
21293;SDS011;10806;52.250;21.066;2022-07-03T03:58:58;6.75;;;3.17;;
21293;SDS011;10806;52.250;21.066;2022-07-03T04:01:24;4.13;;;2.75;;
21293;SDS011;10806;52.250;21.066;2022-07-03T04:03:49;3.90;;;2.78;;
21293;SDS011;10806;52.250;21.066;2022-07-03T04:06:15;3.60;;;2.50;;
21293;SDS011;10806;52.250;21.066;2022-07-03T04:08:43;5.90;;;2.70;;
21293;SDS011;10806;52.250;21.066;2022-07-03T04:11:09;5.63;;;2.90;;
21293;SDS011;10806;52.250;21.066;2022-07-03T04:13:34;3.88;;;2.55;;
21293;SDS011;10806;52.250;21.066;2022-07-03T04:16:00;6.45;;;2.90;;
21293;SDS011;10806;52.250;21.066;2022-07-03T04:18:25;4.15;;;2.55;;
21293;SDS011;10806;52.250;21.066;2022-07-03T04:20:51;6.55;;;3.00;;
21293;SDS011;10806;52.250;21.066;2022-07-03T04:23:17;5.68;;;2.83;;
21293;SDS011;10806;52.250;21.066;2022-07-03T04:25:43;5.75;;;2.58;;
21293;SDS011;10806;52.250;21.066;2022-07-03T04:28:09;4.68;;;2.40;;
21293;SDS011;10806;52.250;21.066;2022-07-03T04:30:35;8.55;;;3.20;;
21293;SDS011;10806;52.250;21.066;2022-07-03T04:33:00;4.70;;;2.65;;
21293;SDS011;10806;52.250;21.066;2022-07-03T04:35:26;4.85;;;2.67;;
21293;SDS011;10806;52.250;21.066;2022-07-03T04:37:51;6.13;;;2.33;;
21293;SDS011;10806;52.250;21.066;2022-07-03T04:40:17;4.22;;;2.40;;
21293;SDS011;10806;52.250;21.066;2022-07-03T04:42:42;6.15;;;2.40;;
21293;SDS011;10806;52.250;21.066;2022-07-03T04:45:08;7.20;;;2.35;;
21293;SDS011;10806;52.250;21.066;2022-07-03T04:47:34;4.80;;;2.40;;
21293;SDS011;10806;52.250;21.066;2022-07-03T04:49:59;3.80;;;2.30;;
21293;SDS011;10806;52.250;21.066;2022-07-03T04:52:25;5.45;;;2.58;;
21293;SDS011;10806;52.250;21.066;2022-07-03T04:54:51;3.55;;;2.10;;
21293;SDS011;10806;52.250;21.066;2022-07-03T04:57:16;4.63;;;2.20;;
21293;SDS011;10806;52.250;21.066;2022-07-03T04:59:42;7.00;;;2.55;;
21293;SDS011;10806;52.250;21.066;2022-07-03T05:02:07;6.70;;;2.53;;
21293;SDS011;10806;52.250;21.066;2022-07-03T05:04:33;5.10;;;2.40;;
21293;SDS011;10806;52.250;21.066;2022-07-03T05:06:59;4.20;;;2.05;;
21293;SDS011;10806;52.250;21.066;2022-07-03T05:09:24;5.95;;;2.58;;
21293;SDS011;10806;52.250;21.066;2022-07-03T05:11:50;3.42;;;2.05;;
21293;SDS011;10806;52.250;21.066;2022-07-03T05:14:16;4.43;;;2.40;;
21293;SDS011;10806;52.250;21.066;2022-07-03T05:16:42;5.90;;;2.40;;
21293;SDS011;10806;52.250;21.066;2022-07-03T05:19:07;5.20;;;2.35;;
21293;SDS011;10806;52.250;21.066;2022-07-03T05:21:33;7.07;;;2.58;;
21293;SDS011;10806;52.250;21.066;2022-07-03T05:23:58;4.13;;;2.10;;
21293;SDS011;10806;52.250;21.066;2022-07-03T05:26:24;7.43;;;2.53;;
21293;SDS011;10806;52.250;21.066;2022-07-03T05:28:50;4.13;;;2.17;;
21293;SDS011;10806;52.250;21.066;2022-07-03T05:31:15;5.43;;;2.15;;
21293;SDS011;10806;52.250;21.066;2022-07-03T05:33:41;11.50;;;2.47;;
21293;SDS011;10806;52.250;21.066;2022-07-03T05:36:07;5.65;;;1.92;;
21293;SDS011;10806;52.250;21.066;2022-07-03T05:38:33;6.82;;;1.88;;
21293;SDS011;10806;52.250;21.066;2022-07-03T05:41:17;10.15;;;2.67;;
21293;SDS011;10806;52.250;21.066;2022-07-03T05:43:43;7.55;;;2.15;;
21293;SDS011;10806;52.250;21.066;2022-07-03T05:46:09;3.97;;;2.00;;
21293;SDS011;10806;52.250;21.066;2022-07-03T05:48:35;7.05;;;2.20;;
21293;SDS011;10806;52.250;21.066;2022-07-03T05:51:00;9.98;;;2.25;;
21293;SDS011;10806;52.250;21.066;2022-07-03T05:53:26;4.57;;;2.28;;
21293;SDS011;10806;52.250;21.066;2022-07-03T05:55:52;4.53;;;2.65;;
21293;SDS011;10806;52.250;21.066;2022-07-03T05:58:17;5.30;;;2.15;;
21293;SDS011;10806;52.250;21.066;2022-07-03T06:00:43;6.28;;;2.03;;
21293;SDS011;10806;52.250;21.066;2022-07-03T06:03:09;2.88;;;2.22;;
21293;SDS011;10806;52.250;21.066;2022-07-03T06:05:35;5.50;;;2.10;;
21293;SDS011;10806;52.250;21.066;2022-07-03T06:08:00;3.65;;;2.05;;
21293;SDS011;10806;52.250;21.066;2022-07-03T06:10:27;3.90;;;1.73;;
21293;SDS011;10806;52.250;21.066;2022-07-03T06:12:53;4.82;;;2.13;;
21293;SDS011;10806;52.250;21.066;2022-07-03T06:15:20;7.13;;;2.28;;
21293;SDS011;10806;52.250;21.066;2022-07-03T06:17:45;4.68;;;1.95;;
21293;SDS011;10806;52.250;21.066;2022-07-03T06:20:11;3.92;;;2.08;;
21293;SDS011;10806;52.250;21.066;2022-07-03T06:22:37;8.60;;;2.25;;
21293;SDS011;10806;52.250;21.066;2022-07-03T06:25:04;5.25;;;1.98;;
21293;SDS011;10806;52.250;21.066;2022-07-03T06:27:30;4.57;;;1.88;;
21293;SDS011;10806;52.250;21.066;2022-07-03T06:29:56;3.15;;;1.85;;
21293;SDS011;10806;52.250;21.066;2022-07-03T06:32:22;3.53;;;1.88;;
21293;SDS011;10806;52.250;21.066;2022-07-03T06:34:47;3.63;;;1.80;;
21293;SDS011;10806;52.250;21.066;2022-07-03T06:37:13;6.45;;;1.55;;
21293;SDS011;10806;52.250;21.066;2022-07-03T06:39:39;6.30;;;1.65;;
21293;SDS011;10806;52.250;21.066;2022-07-03T06:42:05;6.68;;;1.88;;
21293;SDS011;10806;52.250;21.066;2022-07-03T06:44:30;4.72;;;1.48;;
21293;SDS011;10806;52.250;21.066;2022-07-03T06:46:56;5.45;;;1.77;;
21293;SDS011;10806;52.250;21.066;2022-07-03T06:49:22;2.15;;;1.33;;
21293;SDS011;10806;52.250;21.066;2022-07-03T06:51:50;7.95;;;1.65;;
21293;SDS011;10806;52.250;21.066;2022-07-03T06:54:15;6.88;;;1.58;;
21293;SDS011;10806;52.250;21.066;2022-07-03T06:56:41;4.10;;;1.60;;
21293;SDS011;10806;52.250;21.066;2022-07-03T06:59:07;2.38;;;1.30;;
21293;SDS011;10806;52.250;21.066;2022-07-03T07:01:34;4.47;;;1.42;;
21293;SDS011;10806;52.250;21.066;2022-07-03T07:03:59;5.05;;;1.50;;
21293;SDS011;10806;52.250;21.066;2022-07-03T07:06:25;3.42;;;1.30;;
21293;SDS011;10806;52.250;21.066;2022-07-03T07:08:51;3.95;;;1.50;;
21293;SDS011;10806;52.250;21.066;2022-07-03T07:11:16;2.65;;;1.48;;
21293;SDS011;10806;52.250;21.066;2022-07-03T07:13:42;6.90;;;1.60;;
21293;SDS011;10806;52.250;21.066;2022-07-03T07:16:07;4.18;;;1.33;;
21293;SDS011;10806;52.250;21.066;2022-07-03T07:18:33;4.82;;;1.70;;
21293;SDS011;10806;52.250;21.066;2022-07-03T07:20:59;11.27;;;1.77;;
21293;SDS011;10806;52.250;21.066;2022-07-03T07:23:25;5.13;;;1.77;;
21293;SDS011;10806;52.250;21.066;2022-07-03T07:25:51;9.30;;;1.42;;
21293;SDS011;10806;52.250;21.066;2022-07-03T07:28:17;8.65;;;1.95;;
21293;SDS011;10806;52.250;21.066;2022-07-03T07:30:43;3.25;;;1.55;;
21293;SDS011;10806;52.250;21.066;2022-07-03T07:33:08;2.95;;;1.40;;
21293;SDS011;10806;52.250;21.066;2022-07-03T07:35:35;3.38;;;1.30;;
21293;SDS011;10806;52.250;21.066;2022-07-03T07:38:01;3.78;;;1.33;;
21293;SDS011;10806;52.250;21.066;2022-07-03T07:40:27;3.85;;;1.50;;
21293;SDS011;10806;52.250;21.066;2022-07-03T07:42:53;4.13;;;1.70;;
21293;SDS011;10806;52.250;21.066;2022-07-03T07:45:18;2.80;;;1.35;;
21293;SDS011;10806;52.250;21.066;2022-07-03T07:47:44;6.03;;;1.50;;
21293;SDS011;10806;52.250;21.066;2022-07-03T07:50:10;3.75;;;1.40;;
21293;SDS011;10806;52.250;21.066;2022-07-03T07:52:35;3.95;;;1.70;;
21293;SDS011;10806;52.250;21.066;2022-07-03T07:55:01;7.05;;;1.77;;
21293;SDS011;10806;52.250;21.066;2022-07-03T07:57:37;4.60;;;1.63;;
21293;SDS011;10806;52.250;21.066;2022-07-03T08:00:07;4.32;;;1.85;;
21293;SDS011;10806;52.250;21.066;2022-07-03T08:02:34;7.28;;;1.83;;
21293;SDS011;10806;52.250;21.066;2022-07-03T08:05:19;8.57;;;2.00;;
21293;SDS011;10806;52.250;21.066;2022-07-03T08:10:33;5.70;;;1.70;;
21293;SDS011;10806;52.250;21.066;2022-07-03T08:13:25;12.43;;;2.00;;
21293;SDS011;10806;52.250;21.066;2022-07-03T08:15:52;7.50;;;1.85;;
21293;SDS011;10806;52.250;21.066;2022-07-03T08:18:17;3.63;;;1.60;;
21293;SDS011;10806;52.250;21.066;2022-07-03T08:20:43;6.53;;;1.98;;
21293;SDS011;10806;52.250;21.066;2022-07-03T08:23:09;10.13;;;1.90;;
21293;SDS011;10806;52.250;21.066;2022-07-03T08:25:34;4.57;;;1.67;;
21293;SDS011;10806;52.250;21.066;2022-07-03T08:28:01;2.25;;;1.40;;
21293;SDS011;10806;52.250;21.066;2022-07-03T08:30:27;6.10;;;1.75;;
21293;SDS011;10806;52.250;21.066;2022-07-03T08:32:53;3.88;;;1.48;;
21293;SDS011;10806;52.250;21.066;2022-07-03T08:35:21;3.95;;;1.80;;
21293;SDS011;10806;52.250;21.066;2022-07-03T08:37:47;4.85;;;1.60;;
21293;SDS011;10806;52.250;21.066;2022-07-03T08:40:14;6.85;;;2.00;;
21293;SDS011;10806;52.250;21.066;2022-07-03T08:43:02;14.60;;;1.88;;
21293;SDS011;10806;52.250;21.066;2022-07-03T08:45:28;9.77;;;2.20;;
21293;SDS011;10806;52.250;21.066;2022-07-03T08:47:55;13.95;;;2.28;;
21293;SDS011;10806;52.250;21.066;2022-07-03T08:50:22;11.63;;;2.13;;
21293;SDS011;10806;52.250;21.066;2022-07-03T08:52:48;10.77;;;2.25;;
21293;SDS011;10806;52.250;21.066;2022-07-03T08:55:14;8.32;;;2.00;;
21293;SDS011;10806;52.250;21.066;2022-07-03T08:57:41;4.85;;;1.70;;
21293;SDS011;10806;52.250;21.066;2022-07-03T09:00:09;8.27;;;2.33;;
21293;SDS011;10806;52.250;21.066;2022-07-03T09:02:38;12.75;;;1.95;;
21293;SDS011;10806;52.250;21.066;2022-07-03T09:05:08;11.23;;;2.20;;
21293;SDS011;10806;52.250;21.066;2022-07-03T09:07:38;8.82;;;1.60;;
21293;SDS011;10806;52.250;21.066;2022-07-03T09:10:07;7.80;;;2.13;;
21293;SDS011;10806;52.250;21.066;2022-07-03T09:12:34;6.25;;;1.52;;
21293;SDS011;10806;52.250;21.066;2022-07-03T09:15:01;4.35;;;1.88;;
21293;SDS011;10806;52.250;21.066;2022-07-03T09:17:28;5.68;;;1.60;;
21293;SDS011;10806;52.250;21.066;2022-07-03T09:19:54;13.88;;;2.05;;
21293;SDS011;10806;52.250;21.066;2022-07-03T09:22:26;5.47;;;1.75;;
21293;SDS011;10806;52.250;21.066;2022-07-03T09:25:05;6.40;;;1.73;;
21293;SDS011;10806;52.250;21.066;2022-07-03T09:27:33;8.85;;;1.60;;
21293;SDS011;10806;52.250;21.066;2022-07-03T09:30:16;4.97;;;1.77;;
21293;SDS011;10806;52.250;21.066;2022-07-03T09:32:43;11.15;;;1.63;;
21293;SDS011;10806;52.250;21.066;2022-07-03T09:35:23;6.95;;;1.92;;
21293;SDS011;10806;52.250;21.066;2022-07-03T09:37:56;5.47;;;1.65;;
21293;SDS011;10806;52.250;21.066;2022-07-03T09:40:25;12.15;;;2.00;;
21293;SDS011;10806;52.250;21.066;2022-07-03T09:45:28;19.55;;;2.60;;
21293;SDS011;10806;52.250;21.066;2022-07-03T09:48:23;11.70;;;1.80;;
21293;SDS011;10806;52.250;21.066;2022-07-03T09:50:55;10.82;;;1.90;;
21293;SDS011;10806;52.250;21.066;2022-07-03T09:56:35;18.27;;;2.28;;
21293;SDS011;10806;52.250;21.066;2022-07-03T09:59:08;7.32;;;1.85;;
21293;SDS011;10806;52.250;21.066;2022-07-03T10:01:42;10.85;;;2.97;;
21293;SDS011;10806;52.250;21.066;2022-07-03T10:06:46;11.02;;;2.20;;
21293;SDS011;10806;52.250;21.066;2022-07-03T10:09:14;4.93;;;2.08;;
21293;SDS011;10806;52.250;21.066;2022-07-03T10:11:41;6.80;;;1.95;;
21293;SDS011;10806;52.250;21.066;2022-07-03T10:14:07;5.55;;;2.38;;
21293;SDS011;10806;52.250;21.066;2022-07-03T10:16:37;4.07;;;1.70;;
21293;SDS011;10806;52.250;21.066;2022-07-03T10:19:04;4.43;;;1.83;;
21293;SDS011;10806;52.250;21.066;2022-07-03T10:21:31;8.13;;;1.80;;
21293;SDS011;10806;52.250;21.066;2022-07-03T10:24:00;4.35;;;1.65;;
21293;SDS011;10806;52.250;21.066;2022-07-03T10:26:27;2.95;;;1.40;;
21293;SDS011;10806;52.250;21.066;2022-07-03T10:28:54;4.00;;;1.90;;
21293;SDS011;10806;52.250;21.066;2022-07-03T10:31:22;3.92;;;1.60;;
21293;SDS011;10806;52.250;21.066;2022-07-03T10:33:49;2.97;;;1.67;;
21293;SDS011;10806;52.250;21.066;2022-07-03T10:36:16;3.63;;;1.90;;
21293;SDS011;10806;52.250;21.066;2022-07-03T10:38:42;8.98;;;2.20;;
21293;SDS011;10806;52.250;21.066;2022-07-03T10:44:17;7.10;;;2.20;;
21293;SDS011;10806;52.250;21.066;2022-07-03T10:47:02;3.83;;;1.90;;
21293;SDS011;10806;52.250;21.066;2022-07-03T10:49:28;6.15;;;1.80;;
21293;SDS011;10806;52.250;21.066;2022-07-03T11:02:17;23.10;;;3.10;;
21293;SDS011;10806;52.250;21.066;2022-07-03T11:07:22;11.15;;;2.50;;
21293;SDS011;10806;52.250;21.066;2022-07-03T11:15:32;9.13;;;2.05;;
21293;SDS011;10806;52.250;21.066;2022-07-03T11:20:31;6.95;;;2.00;;
21293;SDS011;10806;52.250;21.066;2022-07-03T11:23:02;10.65;;;2.20;;
21293;SDS011;10806;52.250;21.066;2022-07-03T11:25:42;5.80;;;1.90;;
21293;SDS011;10806;52.250;21.066;2022-07-03T11:36:11;8.52;;;1.40;;
21293;SDS011;10806;52.250;21.066;2022-07-03T11:38:53;5.95;;;2.20;;
21293;SDS011;10806;52.250;21.066;2022-07-03T11:44:04;6.53;;;2.30;;
21293;SDS011;10806;52.250;21.066;2022-07-03T11:46:35;4.00;;;2.00;;
21293;SDS011;10806;52.250;21.066;2022-07-03T11:49:06;8.95;;;2.30;;
21293;SDS011;10806;52.250;21.066;2022-07-03T11:51:36;6.15;;;2.20;;
21293;SDS011;10806;52.250;21.066;2022-07-03T11:54:03;4.50;;;2.15;;
21293;SDS011;10806;52.250;21.066;2022-07-03T11:56:29;6.57;;;2.22;;
21293;SDS011;10806;52.250;21.066;2022-07-03T11:58:56;14.82;;;2.13;;
21293;SDS011;10806;52.250;21.066;2022-07-03T12:03:52;6.72;;;1.75;;
21293;SDS011;10806;52.250;21.066;2022-07-03T12:06:19;8.98;;;2.00;;
21293;SDS011;10806;52.250;21.066;2022-07-03T12:08:45;6.03;;;1.75;;
21293;SDS011;10806;52.250;21.066;2022-07-03T12:11:11;7.97;;;2.00;;
21293;SDS011;10806;52.250;21.066;2022-07-03T12:13:38;5.47;;;2.33;;
21293;SDS011;10806;52.250;21.066;2022-07-03T12:16:08;7.13;;;2.00;;
21293;SDS011;10806;52.250;21.066;2022-07-03T12:21:10;8.48;;;2.00;;
21293;SDS011;10806;52.250;21.066;2022-07-03T12:26:31;3.92;;;1.77;;
21293;SDS011;10806;52.250;21.066;2022-07-03T12:28:59;7.95;;;2.03;;
21293;SDS011;10806;52.250;21.066;2022-07-03T12:31:31;6.22;;;2.00;;
21293;SDS011;10806;52.250;21.066;2022-07-03T12:33:58;8.00;;;1.70;;
21293;SDS011;10806;52.250;21.066;2022-07-03T12:36:25;4.88;;;1.50;;
21293;SDS011;10806;52.250;21.066;2022-07-03T12:38:52;5.35;;;2.10;;
21293;SDS011;10806;52.250;21.066;2022-07-03T12:41:19;8.52;;;1.85;;
21293;SDS011;10806;52.250;21.066;2022-07-03T12:43:46;3.30;;;1.75;;
21293;SDS011;10806;52.250;21.066;2022-07-03T12:48:52;6.50;;;1.85;;
21293;SDS011;10806;52.250;21.066;2022-07-03T12:54:14;14.25;;;2.13;;
21293;SDS011;10806;52.250;21.066;2022-07-03T12:56:44;2.80;;;1.67;;
21293;SDS011;10806;52.250;21.066;2022-07-03T12:59:25;3.42;;;1.80;;
21293;SDS011;10806;52.250;21.066;2022-07-03T13:02:04;6.05;;;1.80;;
21293;SDS011;10806;52.250;21.066;2022-07-03T13:04:31;6.30;;;1.92;;
21293;SDS011;10806;52.250;21.066;2022-07-03T13:07:16;6.18;;;1.88;;
21293;SDS011;10806;52.250;21.066;2022-07-03T13:09:42;3.03;;;1.83;;
21293;SDS011;10806;52.250;21.066;2022-07-03T13:12:09;8.73;;;1.98;;
21293;SDS011;10806;52.250;21.066;2022-07-03T13:14:56;2.75;;;1.67;;
21293;SDS011;10806;52.250;21.066;2022-07-03T13:17:22;7.07;;;1.98;;
21293;SDS011;10806;52.250;21.066;2022-07-03T13:19:48;3.47;;;1.60;;
21293;SDS011;10806;52.250;21.066;2022-07-03T13:22:14;4.28;;;2.15;;
21293;SDS011;10806;52.250;21.066;2022-07-03T13:24:39;3.83;;;1.77;;
21293;SDS011;10806;52.250;21.066;2022-07-03T13:27:05;4.10;;;2.05;;
21293;SDS011;10806;52.250;21.066;2022-07-03T13:29:30;3.70;;;1.92;;
21293;SDS011;10806;52.250;21.066;2022-07-03T13:31:56;3.53;;;1.90;;
21293;SDS011;10806;52.250;21.066;2022-07-03T13:34:22;4.85;;;2.08;;
21293;SDS011;10806;52.250;21.066;2022-07-03T13:36:48;3.83;;;1.65;;
21293;SDS011;10806;52.250;21.066;2022-07-03T13:39:14;6.15;;;1.90;;
21293;SDS011;10806;52.250;21.066;2022-07-03T13:41:40;8.38;;;2.10;;
21293;SDS011;10806;52.250;21.066;2022-07-03T13:44:06;4.00;;;1.60;;
21293;SDS011;10806;52.250;21.066;2022-07-03T13:46:31;3.08;;;1.77;;
21293;SDS011;10806;52.250;21.066;2022-07-03T13:48:57;3.33;;;1.60;;
21293;SDS011;10806;52.250;21.066;2022-07-03T13:51:23;13.18;;;1.77;;
21293;SDS011;10806;52.250;21.066;2022-07-03T13:53:48;4.22;;;1.58;;
21293;SDS011;10806;52.250;21.066;2022-07-03T13:56:17;3.17;;;1.80;;
21293;SDS011;10806;52.250;21.066;2022-07-03T13:58:43;4.75;;;2.17;;
21293;SDS011;10806;52.250;21.066;2022-07-03T14:01:09;7.25;;;2.80;;
21293;SDS011;10806;52.250;21.066;2022-07-03T14:03:35;5.18;;;2.90;;
21293;SDS011;10806;52.250;21.066;2022-07-03T14:06:00;4.95;;;2.53;;
21293;SDS011;10806;52.250;21.066;2022-07-03T14:08:26;10.48;;;3.05;;
21293;SDS011;10806;52.250;21.066;2022-07-03T14:10:52;8.50;;;2.40;;
21293;SDS011;10806;52.250;21.066;2022-07-03T14:13:17;5.10;;;2.50;;
21293;SDS011;10806;52.250;21.066;2022-07-03T14:15:43;11.88;;;2.40;;
21293;SDS011;10806;52.250;21.066;2022-07-03T14:18:09;6.40;;;2.05;;
21293;SDS011;10806;52.250;21.066;2022-07-03T14:20:34;6.30;;;2.90;;
21293;SDS011;10806;52.250;21.066;2022-07-03T14:23:00;8.10;;;2.58;;
21293;SDS011;10806;52.250;21.066;2022-07-03T14:25:25;8.75;;;2.78;;
21293;SDS011;10806;52.250;21.066;2022-07-03T14:27:51;4.45;;;2.50;;
21293;SDS011;10806;52.250;21.066;2022-07-03T14:30:35;6.82;;;2.30;;
21293;SDS011;10806;52.250;21.066;2022-07-03T14:33:19;8.68;;;2.63;;
21293;SDS011;10806;52.250;21.066;2022-07-03T14:35:45;4.97;;;2.10;;
21293;SDS011;10806;52.250;21.066;2022-07-03T14:38:10;14.98;;;2.42;;
21293;SDS011;10806;52.250;21.066;2022-07-03T14:40:36;12.25;;;2.30;;
21293;SDS011;10806;52.250;21.066;2022-07-03T14:43:02;12.68;;;2.55;;
21293;SDS011;10806;52.250;21.066;2022-07-03T14:45:27;14.27;;;2.50;;
21293;SDS011;10806;52.250;21.066;2022-07-03T14:47:53;7.00;;;2.28;;
21293;SDS011;10806;52.250;21.066;2022-07-03T14:50:19;4.88;;;2.20;;
21293;SDS011;10806;52.250;21.066;2022-07-03T14:52:44;5.82;;;2.20;;
21293;SDS011;10806;52.250;21.066;2022-07-03T14:55:10;8.40;;;2.30;;
21293;SDS011;10806;52.250;21.066;2022-07-03T14:57:41;6.68;;;2.20;;
21293;SDS011;10806;52.250;21.066;2022-07-03T15:00:27;11.38;;;2.42;;
21293;SDS011;10806;52.250;21.066;2022-07-03T15:05:31;6.85;;;2.15;;
21293;SDS011;10806;52.250;21.066;2022-07-03T15:10:33;6.30;;;2.65;;
21293;SDS011;10806;52.250;21.066;2022-07-03T15:13:00;9.80;;;2.33;;
21293;SDS011;10806;52.250;21.066;2022-07-03T15:15:28;4.70;;;2.08;;
21293;SDS011;10806;52.250;21.066;2022-07-03T15:17:55;7.18;;;2.25;;
21293;SDS011;10806;52.250;21.066;2022-07-03T15:20:23;4.63;;;2.10;;
21293;SDS011;10806;52.250;21.066;2022-07-03T15:22:54;7.45;;;1.92;;
21293;SDS011;10806;52.250;21.066;2022-07-03T15:25:20;4.03;;;1.95;;
21293;SDS011;10806;52.250;21.066;2022-07-03T15:27:52;3.47;;;1.92;;
21293;SDS011;10806;52.250;21.066;2022-07-03T15:30:18;5.70;;;2.10;;
21293;SDS011;10806;52.250;21.066;2022-07-03T15:32:44;8.45;;;2.35;;
21293;SDS011;10806;52.250;21.066;2022-07-03T15:35:12;2.63;;;1.92;;
21293;SDS011;10806;52.250;21.066;2022-07-03T15:37:44;3.97;;;2.05;;
21293;SDS011;10806;52.250;21.066;2022-07-03T15:40:22;7.15;;;2.70;;
21293;SDS011;10806;52.250;21.066;2022-07-03T15:42:53;6.30;;;1.92;;
21293;SDS011;10806;52.250;21.066;2022-07-03T15:45:50;3.28;;;1.88;;
21293;SDS011;10806;52.250;21.066;2022-07-03T15:51:13;6.43;;;2.22;;
21293;SDS011;10806;52.250;21.066;2022-07-03T15:53:44;3.28;;;2.08;;
21293;SDS011;10806;52.250;21.066;2022-07-03T15:56:13;6.28;;;2.25;;
21293;SDS011;10806;52.250;21.066;2022-07-03T15:58:46;7.50;;;2.33;;
21293;SDS011;10806;52.250;21.066;2022-07-03T16:01:15;17.58;;;2.55;;
21293;SDS011;10806;52.250;21.066;2022-07-03T16:04:02;6.18;;;2.45;;
21293;SDS011;10806;52.250;21.066;2022-07-03T16:06:32;13.75;;;2.55;;
21293;SDS011;10806;52.250;21.066;2022-07-03T16:08:59;8.77;;;2.22;;
21293;SDS011;10806;52.250;21.066;2022-07-03T16:11:24;8.68;;;2.47;;
21293;SDS011;10806;52.250;21.066;2022-07-03T16:13:50;7.97;;;2.30;;